Strona główna
METAR-TAF:

METAR-TAF

Lotnisko :

Derby, Australia

Szerokość geograficzna: 17-34-53S, Długość geograficzna: 123-49-42E, wysokość: 91 m

Aktualna obserwacja pogody

Raport powstał 33 minut temu, godzina 11:00 UTC
Wiatr 5 kt od północ
Temperatura 27°C
Wilgotność 30%
Ciśnienie 1012 hPa
Widzialność 10 km lub więcej
Przerywane chmury na wysokości 10000 ft

METAR: YCIN 181100Z AUTO 36005KT 9999 // BKN100 27/08 Q1012

czas: 19:33 (11:33 UTC)

Prognoza

Raport powstał 5 godziny i 30 minut temu, godzina 06:03 UTC
Prognoza ważna od 18 godzina 08 UTC do 18 godzina 20 UTC
Wiatr 8 kt od zachodnio-północny zachód
Widzialność 10 km lub więcej
Brak chmur poniżej 1500 m i brak chmur cumulonimbus
Od 18 godzina 1200 UTC
Wiatr 5 kt od zachodnio-południowy zachód
Widzialność 10 km lub więcej
Brak chmur poniżej 1500 m i brak chmur cumulonimbus

TAF: YCIN 180603Z 1808/1820 30008KT CAVOK FM181200 24005KT CAVOK

Obserwacja i prognoza pogody dla ponad 4000 lotnisk (raport METAR i TAF).

Dostępne stacje oznaczono żółtymi i czerwonymi punktami na mapie.

Najedź kursorem aby zobaczyć nazwę stacji.

Kliknij aby zobaczyć obserwacje i prognozy pogody.

Aby zmienić mapę: kliknij na zielony przycisk z czarnym krzyżykiem, aby powiększyć; na zielony przycisk z myślnikiem, aby pomniejszyć; na zielone strzałki, aby przejść do map sąsiednich.


METAR-TAF: